Time;durP1;ratioP1;P1;durP2;ratioP2;P2;SDS_P1;SDS_P2;PMS_P1;PMS_P2;Temp;Humidity;BMP_temperature;BMP_pressure;BME280_temperature;BME280_humidity;BME280_pressure;Samples;Min_cycle;Max_cycle;Signal;HPM_P1;HPM_P2
2022/12/05 00:01:34;;;;;;;237.02;66.10;;;;;;;2.19;100.00;101215.25;7394763;19;20010;-68
2022/12/05 00:04:04;;;;;;;241.95;69.75;;;;;;;2.16;100.00;101218.66;7393927;19;20023;-69
2022/12/05 00:06:34;;;;;;;229.07;65.13;;;;;;;2.18;100.00;101219.53;7393815;19;20488;-68
2022/12/05 00:09:03;;;;;;;243.20;66.18;;;;;;;2.16;100.00;101212.56;7394979;19;20104;-69
2022/12/05 00:11:33;;;;;;;236.52;67.40;;;;;;;2.15;100.00;101205.63;7394548;19;20392;-69
2022/12/05 00:14:03;;;;;;;244.10;65.50;;;;;;;2.15;100.00;101214.31;7392577;19;20032;-68
2022/12/05 00:16:37;;;;;;;232.40;67.10;;;;;;;2.15;100.00;101206.53;7394820;19;20074;-68
2022/12/05 00:19:07;;;;;;;248.57;68.17;;;;;;;2.15;100.00;101206.53;7393395;19;20035;-69
2022/12/05 00:21:37;;;;;;;250.27;68.60;;;;;;;2.15;100.00;101210.81;7394238;19;20801;-69
2022/12/05 00:24:07;;;;;;;230.75;63.63;;;;;;;2.13;100.00;101212.53;7392634;19;20035;-69
2022/12/05 00:26:44;;;;;;;233.73;65.25;;;;;;;2.11;100.00;101203.00;7393683;19;20019;-69
2022/12/05 00:29:12;;;;;;;236.30;65.68;;;;;;;2.11;100.00;101205.59;7394403;19;20037;-69
2022/12/05 00:31:43;;;;;;;227.00;65.90;;;;;;;2.11;100.00;101207.28;7394345;19;20028;-69
2022/12/05 00:34:12;;;;;;;227.35;64.97;;;;;;;2.10;100.00;101209.03;7392438;19;20495;-68
2022/12/05 00:36:41;;;;;;;223.93;69.10;;;;;;;2.12;100.00;101206.47;7391860;19;20014;-68
2022/12/05 00:39:13;;;;;;;249.30;65.72;;;;;;;2.12;100.00;101206.47;7394196;19;20027;-68
2022/12/05 00:41:41;;;;;;;254.40;67.53;;;;;;;2.13;100.00;101207.34;7394285;19;20018;-68
2022/12/05 00:44:11;;;;;;;235.50;65.18;;;;;;;2.14;100.00;101206.47;7391467;19;20474;-68
2022/12/05 00:46:43;;;;;;;237.38;67.28;;;;;;;2.11;100.00;101202.13;7397324;19;20035;-68
2022/12/05 00:49:19;;;;;;;260.17;65.75;;;;;;;2.13;100.00;101207.34;7401711;19;20018;-69
2022/12/05 00:51:47;;;;;;;259.10;67.03;;;;;;;2.14;100.00;101211.66;7401705;19;20015;-68
2022/12/05 00:54:18;;;;;;;278.88;72.10;;;;;;;2.10;100.00;101203.84;7398224;19;20018;-68
2022/12/05 00:56:47;;;;;;;247.18;66.57;;;;;;;2.13;100.00;101208.22;7398814;19;20022;-68
2022/12/05 00:59:18;;;;;;;242.88;67.20;;;;;;;2.13;100.00;101213.38;7400562;19;20408;-69
2022/12/05 01:01:51;;;;;;;256.05;68.65;;;;;;;2.14;100.00;101209.06;7401269;19;20372;-68
2022/12/05 01:04:22;;;;;;;223.18;67.03;;;;;;;2.14;100.00;101209.97;7397846;19;20407;-68
2022/12/05 01:06:52;;;;;;;238.18;65.60;;;;;;;2.13;100.00;101205.63;7398250;19;20023;-68
2022/12/05 01:09:22;;;;;;;222.40;64.85;;;;;;;2.15;100.00;101210.81;7398457;19;20032;-68
2022/12/05 01:11:51;;;;;;;234.77;63.35;;;;;;;2.15;100.00;101209.13;7398063;19;20019;-68
2022/12/05 01:14:22;;;;;;;221.98;60.97;;;;;;;2.17;100.00;101214.31;7398407;19;20028;-68
2022/12/05 01:16:56;;;;;;;243.05;66.95;;;;;;;2.17;100.00;101206.56;7400004;19;20031;-68
2022/12/05 01:19:26;;;;;;;229.02;65.28;;;;;;;2.15;100.00;101206.53;7400810;19;20097;-68
2022/12/05 01:21:55;;;;;;;234.68;64.93;;;;;;;2.17;100.00;101198.78;7400718;19;20035;-69
2022/12/05 01:24:25;;;;;;;228.35;65.45;;;;;;;2.17;100.00;101204.84;7397533;19;20018;-69
2022/12/05 01:26:54;;;;;;;231.27;64.78;;;;;;;2.17;100.00;101204.84;7398636;19;20479;-69
2022/12/05 01:29:24;;;;;;;250.60;68.90;;;;;;;2.18;100.00;101201.41;7397498;19;20033;-69
2022/12/05 01:31:56;;;;;;;220.32;62.65;;;;;;;2.19;100.00;101197.13;7397532;19;20035;-69
2022/12/05 01:34:25;;;;;;;226.80;66.30;;;;;;;2.18;100.00;101188.47;7397934;19;20074;-68
2022/12/05 01:36:53;;;;;;;226.02;65.75;;;;;;;2.19;100.00;101197.97;7399538;19;20018;-69
2022/12/05 01:39:22;;;;;;;221.85;62.50;;;;;;;2.20;100.00;101193.66;7399631;19;20028;-69
2022/12/05 01:41:51;;;;;;;231.13;65.40;;;;;;;2.20;100.00;101191.06;7401158;19;20035;-69
2022/12/05 01:44:50;;;;;;;228.10;65.88;;;;;;;2.19;100.00;101194.53;7398799;19;20014;-69
2022/12/05 01:47:26;;;;;;;241.57;67.70;;;;;;;2.20;100.00;101188.47;7398859;19;20023;-69
2022/12/05 01:49:54;;;;;;;220.52;67.88;;;;;;;2.21;100.00;101191.13;7397574;19;20031;-69
2022/12/05 01:52:26;;;;;;;219.38;65.68;;;;;;;2.21;100.00;101198.91;7399829;19;20015;-69
2022/12/05 01:54:58;;;;;;;211.90;65.15;;;;;;;2.22;100.00;101189.41;7399654;19;20011;-69
2022/12/05 01:57:27;;;;;;;219.60;65.05;;;;;;;2.23;100.00;101188.56;7399294;19;20023;-68
2022/12/05 02:00:01;;;;;;;219.57;66.95;;;;;;;2.21;100.00;101177.28;7399040;19;20018;-68
2022/12/05 02:02:33;;;;;;;;;;;;;;;2.23;100.00;101185.97;7399454;19;20018;-68
2022/12/05 02:05:06;;;;;;;216.10;62.30;;;;;;;2.23;100.00;101192.00;7398746;19;19919;-69
2022/12/05 02:07:36;;;;;;;215.73;65.60;;;;;;;2.24;100.00;101187.72;7397355;19;20018;-68
2022/12/05 02:10:05;;;;;;;209.15;62.03;;;;;;;2.23;100.00;101189.41;7399015;19;20024;-68
2022/12/05 02:12:34;;;;;;;212.85;63.65;;;;;;;2.19;100.00;101179.00;7396539;19;20035;-71
2022/12/05 02:15:23;;;;;;;206.18;64.07;;;;;;;2.23;100.00;101191.16;7393861;19;20022;-69
2022/12/05 02:18:07;;;;;;;199.48;64.47;;;;;;;2.27;100.00;101196.44;7397106;19;20031;-70
2022/12/05 02:20:47;;;;;;;200.65;63.65;;;;;;;2.28;100.00;101192.13;7399836;19;20027;-71
2022/12/05 02:23:29;;;;;;;198.43;61.38;;;;;;;2.30;100.00;101197.31;7398912;19;20039;-71
2022/12/05 02:26:30;;;;;;;202.68;64.93;;;;;;;2.31;100.00;101186.97;7399292;19;20371;-71
2022/12/05 02:29:34;;;;;;;191.00;61.30;;;;;;;2.32;100.00;101188.72;7399705;19;20019;-70
2022/12/05 02:32:12;;;;;;;197.52;59.03;;;;;;;2.32;100.00;101191.31;7399168;19;20086;-70
2022/12/05 02:34:46;;;;;;;184.90;61.35;;;;;;;2.32;100.00;101190.47;7397472;19;20523;-70
2022/12/05 02:37:18;;;;;;;;;;;;;;;2.34;100.00;101184.47;7399993;19;20017;-71
2022/12/05 02:39:54;;;;;;;168.65;54.85;;;;;;;2.34;100.00;101189.66;7398093;19;19918;-71
2022/12/05 02:42:31;;;;;;;179.82;59.15;;;;;;;2.35;100.00;101188.81;7397017;19;20027;-71
2022/12/05 02:45:06;;;;;;;167.48;57.30;;;;;;;2.35;100.00;101177.56;7395935;19;20015;-71
2022/12/05 02:47:41;;;;;;;162.35;53.67;;;;;;;2.36;100.00;101180.16;7396755;19;20363;-70
2022/12/05 02:50:14;;;;;;;158.65;55.72;;;;;;;2.38;100.00;101177.63;7398859;19;20027;-71
2022/12/05 02:52:43;;;;;;;151.05;55.20;;;;;;;2.40;100.00;101175.94;7398343;19;20090;-70
2022/12/05 02:55:13;;;;;;;149.80;54.75;;;;;;;2.40;100.00;101174.22;7398144;19;20019;-70
2022/12/05 02:57:45;;;;;;;160.43;56.17;;;;;;;2.40;100.00;101176.81;7398195;19;20031;-70
2022/12/05 03:00:15;;;;;;;161.05;55.33;;;;;;;2.42;100.00;101172.53;7397890;19;20023;-70
2022/12/05 03:02:46;;;;;;;148.82;55.28;;;;;;;2.43;100.00;101169.09;7397788;19;20018;-71
2022/12/05 03:05:23;;;;;;;151.00;54.97;;;;;;;2.43;100.00;101166.50;7398776;19;20018;-70
2022/12/05 03:07:56;;;;;;;153.20;52.20;;;;;;;2.45;100.00;101169.09;7395463;19;20006;-70
2022/12/05 03:10:30;;;;;;;151.07;54.00;;;;;;;2.46;100.00;101159.63;7397905;19;20011;-70
2022/12/05 03:13:06;;;;;;;143.98;53.40;;;;;;;2.46;100.00;101162.22;7396265;19;20018;-71
2022/12/05 03:15:38;;;;;;;151.10;53.72;;;;;;;2.48;100.00;101168.28;7397704;19;20018;-70
2022/12/05 03:18:16;;;;;;;141.38;50.53;;;;;;;2.47;100.00;101163.97;7396243;19;20018;-70
2022/12/05 03:20:49;;;;;;;141.45;50.83;;;;;;;2.48;100.00;101166.59;7396347;19;20390;-70
2022/12/05 03:23:25;;;;;;;130.33;50.30;;;;;;;2.52;100.00;101170.13;7397063;19;20027;-71
2022/12/05 03:26:13;;;;;;;129.35;49.97;;;;;;;2.54;100.00;101176.19;7397353;19;20021;-70
2022/12/05 03:28:53;;;;;;;140.18;51.00;;;;;;;2.54;100.00;101176.19;7398186;19;20028;-70
2022/12/05 03:31:32;;;;;;;139.95;50.35;;;;;;;2.54;100.00;101171.88;7397989;19;20019;-71
2022/12/05 03:34:08;;;;;;;127.68;49.05;;;;;;;2.55;100.00;101172.75;7395534;19;20015;-70
2022/12/05 03:36:41;;;;;;;131.77;49.25;;;;;;;2.56;100.00;101167.59;7395748;19;20481;-70
2022/12/05 03:39:15;;;;;;;124.95;50.17;;;;;;;2.57;100.00;101168.47;7395780;19;20122;-70
2022/12/05 03:41:50;;;;;;;126.93;49.90;;;;;;;2.58;100.00;101178.88;7395571;19;20010;-70
2022/12/05 03:44:23;;;;;;;129.55;49.45;;;;;;;2.58;100.00;101172.81;7395531;19;20018;-70
2022/12/05 03:46:57;;;;;;;124.78;50.70;;;;;;;2.58;100.00;101168.50;7394605;19;20019;-70
2022/12/05 03:49:36;;;;;;;121.53;46.67;;;;;;;2.58;100.00;101173.69;7397442;19;20041;-70
2022/12/05 03:52:11;;;;;;;117.35;45.83;;;;;;;2.59;100.00;101169.38;7397228;19;20022;-70
2022/12/05 03:54:44;;;;;;;117.63;45.15;;;;;;;2.50;100.00;101145.91;7394658;19;20489;-70
2022/12/05 03:57:17;;;;;;;117.18;45.85;;;;;;;2.59;100.00;101167.66;7396443;19;20015;-70
2022/12/05 03:59:50;;;;;;;113.82;48.08;;;;;;;2.60;100.00;101168.53;7394647;19;20485;-71
2022/12/05 04:02:26;;;;;;;123.35;46.92;;;;;;;2.61;100.00;101170.28;7394962;19;20019;-69
2022/12/05 04:05:04;;;;;;;113.45;45.90;;;;;;;2.61;100.00;101173.72;7394125;19;20011;-70
2022/12/05 04:07:37;;;;;;;113.90;45.00;;;;;;;2.60;100.00;101169.41;7394784;19;20031;-70
2022/12/05 04:10:10;;;;;;;113.20;46.78;;;;;;;2.60;100.00;101171.13;7394123;19;20485;-70
2022/12/05 04:12:42;;;;;;;106.15;45.17;;;;;;;2.58;100.00;101163.31;7393662;19;20035;-72
2022/12/05 04:15:16;;;;;;;114.53;46.88;;;;;;;2.61;100.00;101176.31;7395123;19;20024;-70
2022/12/05 04:17:50;;;;;;;111.10;45.63;;;;;;;2.62;100.00;101172.03;7393830;19;20010;-70
2022/12/05 04:23:09;;;;;;;119.88;46.10;;;;;;;2.61;100.00;101178.03;7402296;19;20003;-71
2022/12/05 04:25:41;;;;;;;112.20;46.38;;;;;;;2.62;100.00;101179.78;7400957;19;20010;-70
2022/12/05 04:28:22;;;;;;;118.55;46.65;;;;;;;2.62;100.00;101182.38;7401647;19;20027;-70
2022/12/05 04:30:59;;;;;;;113.15;45.72;;;;;;;2.61;100.00;101180.63;7402272;19;20510;-70
2022/12/05 04:33:35;;;;;;;115.65;44.50;;;;;;;2.60;100.00;101173.69;7400049;19;20015;-70
2022/12/05 04:36:14;;;;;;;109.72;44.63;;;;;;;2.60;100.00;101178.88;7401196;19;20319;-70
2022/12/05 04:38:50;;;;;;;112.05;44.70;;;;;;;2.59;100.00;101172.84;7404789;19;20035;-70
2022/12/05 04:41:24;;;;;;;120.47;45.25;;;;;;;2.57;100.00;101168.47;7402203;19;20498;-71
2022/12/05 04:43:53;;;;;;;115.00;44.42;;;;;;;2.57;100.00;101169.34;7402489;19;20015;-71
2022/12/05 04:46:24;;;;;;;112.47;43.00;;;;;;;2.57;100.00;101164.16;7403177;19;20038;-70
2022/12/05 04:48:57;;;;;;;111.00;43.42;;;;;;;2.60;100.00;101168.53;7402801;19;20031;-70
2022/12/05 04:51:34;;;;;;;105.87;44.33;;;;;;;2.60;100.00;101163.34;7410155;19;20025;-70
2022/12/05 04:54:06;;;;;;;103.22;41.35;;;;;;;2.59;100.00;101167.66;7407144;19;20032;-73
2022/12/05 04:56:39;;;;;;;105.07;42.35;;;;;;;2.58;100.00;101175.41;7405235;19;20027;-68
2022/12/05 04:59:08;;;;;;;102.95;41.40;;;;;;;2.58;100.00;101170.22;7407104;19;20010;-67
2022/12/05 05:01:44;;;;;;;113.63;43.15;;;;;;;2.58;100.00;101178.88;7404847;19;20028;-69
2022/12/05 05:04:16;;;;;;;111.28;43.58;;;;;;;2.43;100.00;101152.69;7404364;19;20049;-71
2022/12/05 05:06:47;;;;;;;100.38;43.35;;;;;;;2.58;100.00;101172.81;7405540;19;20039;-71
2022/12/05 05:09:16;;;;;;;107.32;40.95;;;;;;;2.58;100.00;101176.28;7402851;19;20513;-69
2022/12/05 05:11:44;;;;;;;98.78;40.63;;;;;;;2.59;100.00;101187.50;7402196;19;20015;-70
2022/12/05 05:14:20;;;;;;;97.07;39.53;;;;;;;2.58;100.00;101186.63;7399251;19;20010;-70
2022/12/05 05:16:48;;;;;;;101.80;40.38;;;;;;;2.56;100.00;101182.28;7399031;19;20082;-70
2022/12/05 05:19:16;;;;;;;94.03;38.22;;;;;;;2.59;100.00;101184.91;7401666;19;20026;-70
2022/12/05 05:21:47;;;;;;;97.90;39.22;;;;;;;2.59;100.00;101182.31;7399072;19;20036;-70
2022/12/05 05:24:17;;;;;;;95.00;41.03;;;;;;;2.58;100.00;101178.00;7399764;19;20032;-70
2022/12/05 05:26:47;;;;;;;94.32;37.13;;;;;;;2.59;100.00;101184.91;7398779;19;20030;-70
2022/12/05 05:29:17;;;;;;;93.40;39.78;;;;;;;2.55;100.00;101176.22;7401869;19;20044;-69
2022/12/05 05:31:46;;;;;;;97.03;39.22;;;;;;;2.57;100.00;101184.88;7399603;19;20365;-70
2022/12/05 05:34:15;;;;;;;95.43;39.40;;;;;;;2.56;100.00;101182.28;7399093;19;20477;-71
2022/12/05 05:36:46;;;;;;;93.82;39.70;;;;;;;2.31;100.00;101140.38;7399383;19;20032;-70
2022/12/05 05:42:28;;;;;;;92.15;39.13;;;;;;;2.56;100.00;101188.31;7401332;19;20018;-69
2022/12/05 05:44:56;;;;;;;89.85;37.95;;;;;;;2.57;100.00;101190.06;7398338;19;20018;-70
2022/12/05 05:47:25;;;;;;;89.55;38.53;;;;;;;2.56;100.00;101187.44;7399230;19;20078;-70
2022/12/05 05:49:53;;;;;;;98.75;39.13;;;;;;;2.57;100.00;101194.38;7398709;19;20582;-70
2022/12/05 05:52:24;;;;;;;93.70;37.83;;;;;;;2.53;100.00;101183.09;7402936;19;20007;-71
2022/12/05 05:54:53;;;;;;;90.25;38.70;;;;;;;2.54;100.00;101183.94;7400331;19;20018;-71
2022/12/05 05:57:21;;;;;;;83.03;35.90;;;;;;;2.54;100.00;101183.94;7400599;19;20023;-70
2022/12/05 05:59:50;;;;;;;91.30;38.47;;;;;;;2.54;100.00;101182.25;7397750;19;20027;-70
2022/12/05 06:02:18;;;;;;;84.25;35.47;;;;;;;2.55;100.00;101180.53;7398343;19;20022;-68
2022/12/05 06:04:47;;;;;;;87.38;35.28;;;;;;;2.55;100.00;101180.53;7397289;19;20454;-70
2022/12/05 06:07:15;;;;;;;91.03;39.03;;;;;;;2.57;100.00;101181.44;7399194;19;20075;-70
2022/12/05 06:09:47;;;;;;;87.43;36.95;;;;;;;2.58;100.00;101183.19;7398900;19;20035;-71
2022/12/05 06:12:15;;;;;;;91.15;37.08;;;;;;;2.59;100.00;101187.50;7400713;19;20015;-71
2022/12/05 06:14:44;;;;;;;91.38;37.17;;;;;;;2.59;100.00;101183.22;7402730;19;20013;-69
2022/12/05 06:17:12;;;;;;;92.88;37.80;;;;;;;2.59;100.00;101184.91;7397236;19;20020;-70
2022/12/05 06:19:41;;;;;;;83.28;35.30;;;;;;;2.59;100.00;101190.09;7396704;19;20490;-70
2022/12/05 06:22:09;;;;;;;89.45;36.08;;;;;;;2.58;100.00;101191.81;7399273;19;20035;-68
2022/12/05 06:24:37;;;;;;;89.95;35.58;;;;;;;2.58;100.00;101199.59;7396504;19;20014;-70
2022/12/05 06:27:09;;;;;;;90.35;36.28;;;;;;;2.58;100.00;101196.13;7398497;19;20018;-70
2022/12/05 06:29:37;;;;;;;95.80;36.30;;;;;;;2.57;100.00;101197.84;7399699;19;20035;-70
2022/12/05 06:32:06;;;;;;;90.10;37.35;;;;;;;2.48;100.00;101183.84;7397885;19;20467;-70
2022/12/05 06:34:34;;;;;;;93.85;35.65;;;;;;;2.58;100.00;101202.19;7396588;19;20024;-70
2022/12/05 06:37:03;;;;;;;93.53;36.53;;;;;;;2.59;100.00;101208.22;7399688;19;20023;-70
2022/12/05 06:39:31;;;;;;;80.07;34.03;;;;;;;2.59;100.00;101198.75;7409452;19;20537;-71
2022/12/05 06:42:01;;;;;;;90.38;35.63;;;;;;;2.57;100.00;101203.00;7411315;19;20118;-70
2022/12/05 06:44:32;;;;;;;82.25;32.97;;;;;;;2.57;100.00;101205.59;7411887;19;20019;-69
2022/12/05 06:47:07;;;;;;;83.82;34.75;;;;;;;2.57;100.00;101207.34;7405193;19;20014;-71
2022/12/05 06:49:35;;;;;;;79.65;33.25;;;;;;;2.56;100.00;101208.19;7399534;19;20185;-71
2022/12/05 06:52:04;;;;;;;77.22;33.65;;;;;;;2.56;100.00;101210.75;7399908;19;20019;-71
2022/12/05 06:54:32;;;;;;;80.30;33.45;;;;;;;2.57;100.00;101221.16;7396653;19;20014;-69
2022/12/05 06:57:01;;;;;;;80.55;33.58;;;;;;;2.59;100.00;101216.00;7398995;19;20035;-70
2022/12/05 06:59:32;;;;;;;87.47;39.03;;;;;;;2.58;100.00;101212.53;7399079;19;20015;-70
2022/12/05 07:01:59;;;;;;;73.72;31.45;;;;;;;2.54;100.00;101209.84;7397832;19;20104;-68
2022/12/05 07:04:27;;;;;;;78.03;32.75;;;;;;;2.58;100.00;101216.88;7398085;19;20463;-69
2022/12/05 07:06:57;;;;;;;71.68;32.55;;;;;;;2.60;100.00;101215.16;7396775;19;20010;-70
2022/12/05 07:09:44;;;;;;;75.82;31.90;;;;;;;2.60;100.00;101220.34;7396597;19;20029;-69
2022/12/05 07:12:13;;;;;;;69.60;31.25;;;;;;;2.59;100.00;101214.28;7399171;19;20021;-69
2022/12/05 07:14:44;;;;;;;65.22;30.67;;;;;;;2.58;100.00;101227.22;7400016;19;20011;-69
2022/12/05 07:17:13;;;;;;;63.17;30.80;;;;;;;2.57;100.00;101223.75;7400549;19;20035;-69
2022/12/05 07:19:41;;;;;;;64.10;27.80;;;;;;;2.60;100.00;101230.69;7400005;19;20035;-71
2022/12/05 07:22:10;;;;;;;64.95;29.85;;;;;;;2.60;100.00;101234.19;7397303;19;20022;-69
2022/12/05 07:24:39;;;;;;;66.95;29.30;;;;;;;2.51;100.00;101215.00;7395277;19;20018;-68
2022/12/05 07:27:07;;;;;;;65.88;31.90;;;;;;;2.64;100.00;101235.13;7397480;19;20015;-69
2022/12/05 07:29:36;;;;;;;60.53;29.30;;;;;;;2.64;100.00;101232.53;7395368;19;20374;-69
2022/12/05 07:32:07;;;;;;;62.05;28.58;;;;;;;2.65;100.00;101223.88;7396223;19;20018;-69
2022/12/05 07:34:37;;;;;;;58.60;28.38;;;;;;;2.66;100.00;101230.81;7395544;19;20023;-69
2022/12/05 07:37:06;;;;;;;57.45;28.70;;;;;;;2.66;100.00;101236.00;7394883;19;20485;-69
2022/12/05 07:39:35;;;;;;;59.10;27.40;;;;;;;2.68;100.00;101231.72;7395596;19;20026;-70
2022/12/05 07:42:04;;;;;;;63.00;29.05;;;;;;;2.65;100.00;101233.38;7398046;19;20035;-71
2022/12/05 07:44:33;;;;;;;60.20;27.35;;;;;;;2.67;100.00;101232.56;7394801;19;20019;-69
2022/12/05 07:47:02;;;;;;;56.80;28.17;;;;;;;2.67;100.00;101232.56;7396959;19;20045;-69
2022/12/05 07:49:33;;;;;;;57.33;28.75;;;;;;;2.69;100.00;101242.94;7394730;19;20074;-69
2022/12/05 07:52:01;;;;;;;56.25;28.80;;;;;;;2.68;100.00;101230.84;7396699;19;20086;-70
2022/12/05 07:54:30;;;;;;;58.13;28.25;;;;;;;2.69;100.00;101233.47;7394253;19;20018;-69
2022/12/05 07:56:58;;;;;;;55.28;28.05;;;;;;;2.68;100.00;101228.25;7395727;19;20018;-69
2022/12/05 07:59:27;;;;;;;60.33;28.20;;;;;;;2.69;100.00;101230.88;7395981;19;20035;-69
2022/12/05 08:01:55;;;;;;;57.88;28.15;;;;;;;2.70;100.00;101227.44;7395747;19;20022;-69
2022/12/05 08:04:24;;;;;;;61.35;27.08;;;;;;;2.70;100.00;101234.34;7394546;19;20474;-70
2022/12/05 08:06:55;;;;;;;55.75;27.83;;;;;;;2.71;100.00;101231.78;7395983;19;20097;-70
2022/12/05 08:09:23;;;;;;;50.55;25.20;;;;;;;2.71;100.00;101229.19;7394054;19;20074;-69
2022/12/05 08:11:52;;;;;;;53.65;26.23;;;;;;;2.65;100.00;101226.47;7393657;19;20031;-69
2022/12/05 08:14:20;;;;;;;54.33;28.15;;;;;;;2.71;100.00;101225.72;7394057;19;20070;-69
2022/12/05 08:16:49;;;;;;;59.55;28.40;;;;;;;2.72;100.00;101228.34;7394940;19;20019;-69
2022/12/05 08:19:18;;;;;;;56.22;28.15;;;;;;;2.74;100.00;101234.44;7396349;19;20023;-69
2022/12/05 08:21:46;;;;;;;54.50;25.90;;;;;;;2.75;100.00;101240.47;7394171;19;20373;-69
2022/12/05 08:24:18;;;;;;;52.80;25.35;;;;;;;2.76;100.00;101234.44;7394517;19;20391;-69
2022/12/05 08:26:46;;;;;;;47.97;23.85;;;;;;;2.75;100.00;101240.47;7396917;19;20014;-71
2022/12/05 08:29:16;;;;;;;48.58;24.02;;;;;;;2.76;100.00;101243.09;7396969;19;20525;-69
2022/12/05 08:31:48;;;;;;;46.75;24.52;;;;;;;2.75;100.00;101236.16;7396655;19;20043;-70
2022/12/05 08:34:19;;;;;;;52.80;24.88;;;;;;;2.74;100.00;101237.03;7397625;19;20541;-69
2022/12/05 08:36:47;;;;;;;51.03;24.08;;;;;;;2.75;100.00;101246.53;7397999;19;20015;-70
2022/12/05 08:39:21;;;;;;;52.55;25.33;;;;;;;2.75;100.00;101237.88;7399958;19;20026;-70
2022/12/05 08:41:50;;;;;;;50.22;24.88;;;;;;;2.77;100.00;101238.81;7403591;19;20010;-71
2022/12/05 08:44:19;;;;;;;43.65;23.33;;;;;;;2.79;100.00;101244.00;7421951;19;20021;-70
2022/12/05 08:46:49;;;;;;;46.72;23.80;;;;;;;2.77;100.00;101247.44;7420810;19;20003;-70
2022/12/05 08:49:19;;;;;;;47.35;23.65;;;;;;;2.80;100.00;101254.38;7420919;19;20018;-70
2022/12/05 08:51:47;;;;;;;42.13;22.85;;;;;;;2.79;100.00;101256.97;7419664;19;20022;-70
2022/12/05 08:54:18;;;;;;;89.38;44.03;;;;;;;2.81;100.00;101263.91;7418897;19;20019;-70
2022/12/05 08:56:47;;;;;;;48.78;24.73;;;;;;;2.83;100.00;101266.53;7408485;19;20372;-70
2022/12/05 08:59:15;;;;;;;46.35;22.70;;;;;;;2.83;100.00;101258.75;7392449;19;20027;-70
2022/12/05 09:01:44;;;;;;;44.70;23.70;;;;;;;2.84;100.00;101268.28;7396839;19;20024;-69
2022/12/05 09:04:12;;;;;;;45.05;23.67;;;;;;;2.75;100.00;101254.28;7395229;19;20018;-71
2022/12/05 09:06:42;;;;;;;44.03;22.52;;;;;;;2.84;100.00;101265.69;7394420;19;20023;-69
2022/12/05 09:09:12;;;;;;;49.08;25.35;;;;;;;2.85;100.00;101270.03;7398966;19;20511;-69
2022/12/05 09:11:49;;;;;;;49.92;25.00;;;;;;;2.79;100.00;101263.00;7398885;19;20014;-70
2022/12/05 09:14:18;;;;;;;46.50;24.48;;;;;;;2.87;100.00;101263.13;7398180;19;20028;-70
2022/12/05 09:16:48;;;;;;;48.83;23.73;;;;;;;2.88;100.00;101263.19;7398857;19;20014;-70
2022/12/05 09:19:22;;;;;;;47.58;22.80;;;;;;;2.90;100.00;101260.63;7401546;19;20039;-70
2022/12/05 09:21:50;;;;;;;45.28;23.85;;;;;;;2.92;100.00;101264.13;7399220;19;20014;-70
2022/12/05 09:24:18;;;;;;;50.35;23.10;;;;;;;2.92;100.00;101269.31;7398666;19;20259;-70
2022/12/05 09:26:50;;;;;;;44.85;23.00;;;;;;;2.92;100.00;101269.31;7397808;19;20018;-70
2022/12/05 09:29:18;;;;;;;44.75;24.27;;;;;;;2.91;100.00;101262.38;7398438;19;20086;-68
2022/12/05 09:31:51;;;;;;;44.75;22.80;;;;;;;2.91;100.00;101264.97;7397861;19;20023;-70
2022/12/05 09:34:19;;;;;;;63.67;32.10;;;;;;;2.91;100.00;101263.22;7398705;19;20029;-69
2022/12/05 09:36:50;;;;;;;50.65;27.27;;;;;;;2.93;100.00;101264.16;7398412;19;20026;-70
2022/12/05 09:39:19;;;;;;;48.95;26.52;;;;;;;2.94;100.00;101267.59;7400897;19;20044;-70
2022/12/05 09:42:20;;;;;;;57.28;28.38;;;;;;;2.96;100.00;101273.69;7398455;19;20039;-69
2022/12/05 09:45:03;;;;;;;49.67;23.40;;;;;;;2.86;100.00;101251.06;7397231;19;20015;-68
2022/12/05 09:47:43;;;;;;;49.70;25.83;;;;;;;2.96;100.00;101265.91;7401346;19;20019;-70
2022/12/05 09:50:20;;;;;;;51.53;24.65;;;;;;;2.98;100.00;101264.22;7398074;19;20031;-69
2022/12/05 09:53:22;;;;;;;54.97;26.83;;;;;;;2.98;100.00;101261.63;7399505;19;20362;-69
2022/12/05 09:55:54;;;;;;;57.75;27.98;;;;;;;3.00;100.00;101265.13;7397258;19;20019;-70
2022/12/05 09:58:30;;;;;;;56.58;28.15;;;;;;;2.95;100.00;101247.75;7400858;19;20017;-70
2022/12/05 10:01:04;;;;;;;55.40;28.40;;;;;;;3.04;100.00;101255.69;7401677;19;20045;-71
2022/12/05 10:03:43;;;;;;;53.90;26.13;;;;;;;3.05;100.00;101252.25;7398974;19;20017;-69
2022/12/05 10:06:16;;;;;;;58.70;27.55;;;;;;;3.07;100.00;101251.44;7396651;19;20485;-70
2022/12/05 10:09:03;;;;;;;58.30;27.95;;;;;;;3.10;100.00;101251.47;7397630;19;20171;-70
2022/12/05 10:11:37;;;;;;;51.35;24.70;;;;;;;3.14;100.00;101251.53;7401042;19;20023;-70
2022/12/05 10:14:34;;;;;;;52.13;25.83;;;;;;;3.19;100.00;101252.47;7398041;19;20018;-70
2022/12/05 10:17:10;;;;;;;51.60;24.20;;;;;;;3.22;100.00;101258.59;7399344;19;20074;-70
2022/12/05 10:19:43;;;;;;;67.47;32.58;;;;;;;3.24;100.00;101256.88;7397922;19;20022;-68
2022/12/05 10:22:17;;;;;;;81.40;40.70;;;;;;;3.15;100.00;101236.00;7397057;19;20032;-68
2022/12/05 10:24:51;;;;;;;55.05;27.33;;;;;;;3.28;100.00;101252.63;7397098;19;20031;-69
2022/12/05 10:27:22;;;;;;;49.83;25.55;;;;;;;3.30;100.00;101247.47;7399339;19;20018;-69
2022/12/05 10:29:59;;;;;;;49.13;25.90;;;;;;;3.34;100.00;101249.28;7397240;19;20034;-69
2022/12/05 10:32:31;;;;;;;46.05;24.23;;;;;;;3.35;100.00;101254.47;7399364;19;20022;-72
2022/12/05 10:35:12;;;;;;;48.03;23.88;;;;;;;3.36;100.00;101252.75;7399312;19;20015;-70
2022/12/05 10:37:40;;;;;;;48.80;24.38;;;;;;;3.37;100.00;101255.34;7398970;19;20027;-68
2022/12/05 10:40:14;;;;;;;46.80;24.83;;;;;;;3.36;100.00;101251.03;7401582;19;20019;-69
2022/12/05 10:42:42;;;;;;;46.53;24.07;;;;;;;3.38;100.00;101251.91;7398396;19;20031;-70
2022/12/05 10:45:21;;;;;;;55.10;28.98;;;;;;;3.40;100.00;101255.44;7397180;19;20024;-71
2022/12/05 10:47:54;;;;;;;47.13;23.90;;;;;;;3.41;100.00;101253.69;7396876;19;20413;-67
2022/12/05 10:50:29;;;;;;;47.67;25.70;;;;;;;3.40;100.00;101254.56;7397434;19;20022;-66
2022/12/05 10:53:00;;;;;;;45.78;23.35;;;;;;;3.41;100.00;101256.28;7398600;19;20031;-67
2022/12/05 10:55:36;;;;;;;45.40;24.45;;;;;;;3.42;100.00;101258.94;7398713;19;20018;-66
2022/12/05 10:58:13;;;;;;;47.50;24.90;;;;;;;3.43;100.00;101252.00;7395864;19;20090;-67
2022/12/05 11:00:46;;;;;;;44.70;24.23;;;;;;;3.43;100.00;101255.47;7399518;19;20388;-67
2022/12/05 11:03:27;;;;;;;46.75;25.15;;;;;;;3.36;100.00;101230.28;7397376;19;20029;-65
2022/12/05 11:05:58;;;;;;;45.83;24.10;;;;;;;3.48;100.00;101252.09;7397948;19;20028;-65
2022/12/05 11:08:29;;;;;;;48.15;24.90;;;;;;;3.46;100.00;101244.25;7397793;19;20049;-66
2022/12/05 11:11:09;;;;;;;48.55;24.42;;;;;;;3.50;100.00;101252.97;7396113;19;20015;-66
2022/12/05 11:13:37;;;;;;;44.83;25.23;;;;;;;3.50;100.00;101243.47;7396174;19;20018;-67
2022/12/05 11:16:25;;;;;;;109.95;56.67;;;;;;;3.54;100.00;101249.59;7395495;19;20080;-65
2022/12/05 11:18:53;;;;;;;53.92;28.08;;;;;;;3.56;100.00;101242.69;7397074;19;20414;-66
2022/12/05 11:21:22;;;;;;;53.03;27.98;;;;;;;3.57;100.00;101242.69;7395441;19;20007;-66
2022/12/05 11:23:51;;;;;;;52.35;27.75;;;;;;;3.61;100.00;101235.84;7395256;19;20074;-71
2022/12/05 11:26:35;;;;;;;54.17;29.88;;;;;;;3.63;100.00;101239.34;7398082;19;20010;-67
2022/12/05 11:29:03;;;;;;;53.83;26.47;;;;;;;3.65;100.00;101244.53;7395785;19;20025;-66
2022/12/05 11:31:34;;;;;;;48.42;24.95;;;;;;;3.67;100.00;101246.31;7397355;19;20485;-68
2022/12/05 11:34:12;;;;;;;54.17;28.58;;;;;;;3.70;100.00;101246.38;7396069;19;20126;-69
2022/12/05 11:36:45;;;;;;;61.40;33.33;;;;;;;3.72;100.00;101242.06;7395335;19;20011;-69